Time;durP1;ratioP1;P1;durP2;ratioP2;P2;SDS_P1;SDS_P2;PMS_P1;PMS_P2;Temp;Humidity;BMP_temperature;BMP_pressure;BME280_temperature;BME280_humidity;BME280_pressure;Samples;Min_cycle;Max_cycle;Signal;HPM_P1;HPM_P2
2022/05/10 00:00:21;;;;;;;6.50;3.70;;;15.20;73.20;;;;;;4982487;28;21537;-41
2022/05/10 00:02:50;;;;;;;8.52;3.85;;;15.00;74.50;;;;;;4987000;28;20046;-41
2022/05/10 00:05:30;;;;;;;13.10;4.85;;;14.80;77.20;;;;;;4971065;28;20507;-41
2022/05/10 00:07:57;;;;;;;8.50;4.03;;;14.60;81.30;;;;;;4985419;28;20129;-44
2022/05/10 00:10:23;;;;;;;13.05;4.57;;;14.50;80.50;;;;;;4985125;28;20038;-43
2022/05/10 00:12:49;;;;;;;8.43;3.60;;;14.40;82.30;;;;;;4986598;28;20496;-41
2022/05/10 00:15:14;;;;;;;6.72;3.58;;;14.30;81.60;;;;;;4986690;28;20092;-44
2022/05/10 00:17:42;;;;;;;8.68;4.78;;;14.40;83.20;;;;;;4984911;28;20046;-42
2022/05/10 00:20:12;;;;;;;7.65;3.95;;;14.40;83.60;;;;;;4984575;28;20093;-41
2022/05/10 00:22:38;;;;;;;7.30;3.95;;;14.40;82.90;;;;;;4982766;28;20053;-42
2022/05/10 00:25:06;;;;;;;10.48;4.07;;;14.40;82.40;;;;;;4985617;28;20034;-40
2022/05/10 00:27:32;;;;;;;7.15;3.60;;;14.50;83.00;;;;;;4984339;28;20703;-40
2022/05/10 00:29:58;;;;;;;10.00;4.18;;;14.50;82.40;;;;;;4985093;28;20117;-40
2022/05/10 00:32:28;;;;;;;10.63;4.30;;;14.50;80.80;;;;;;4966980;28;20093;-41
2022/05/10 00:34:54;;;;;;;7.85;3.92;;;14.40;81.20;;;;;;4984485;28;20121;-40
2022/05/10 00:37:21;;;;;;;10.73;4.60;;;14.50;82.60;;;;;;4983034;28;20053;-45
2022/05/10 00:39:47;;;;;;;8.38;4.53;;;14.40;82.70;;;;;;4982931;28;20034;-41
2022/05/10 00:42:22;;;;;;;8.48;4.20;;;14.40;84.00;;;;;;4972034;28;20114;-41
2022/05/10 00:44:55;;;;;;;6.25;3.90;;;14.40;83.90;;;;;;4984606;28;20039;-42
2022/05/10 00:47:38;;;;;;;9.75;4.85;;;14.40;83.60;;;;;;4984760;28;20504;-41
2022/05/10 00:50:06;;;;;;;10.80;4.80;;;14.40;84.30;;;;;;4982645;28;20034;-41
2022/05/10 00:52:49;;;;;;;8.52;3.88;;;14.30;84.50;;;;;;4987267;28;20038;-41
2022/05/10 00:55:18;;;;;;;7.28;3.58;;;14.30;85.10;;;;;;4977371;28;20160;-43
2022/05/10 00:57:58;;;;;;;7.97;4.00;;;14.30;84.90;;;;;;4980573;28;20470;-41
2022/05/10 01:00:26;;;;;;;9.45;4.43;;;14.30;85.20;;;;;;4981181;28;20038;-41
2022/05/10 01:03:13;;;;;;;9.52;3.88;;;14.30;85.00;;;;;;4985822;28;20038;-41
2022/05/10 01:06:07;;;;;;;7.40;3.60;;;14.30;86.00;;;;;;4982076;28;20456;-41
2022/05/10 01:09:09;;;;;;;8.43;4.10;;;14.30;87.40;;;;;;4980401;28;20069;-42
2022/05/10 01:12:10;;;;;;;9.70;4.68;;;14.30;89.30;;;;;;4977656;28;20050;-40
2022/05/10 01:15:01;;;;;;;10.20;4.30;;;14.30;90.30;;;;;;4941835;28;20035;-42
2022/05/10 01:17:27;;;;;;;8.02;4.55;;;14.30;87.20;;;;;;4980438;28;20076;-42
2022/05/10 01:19:53;;;;;;;8.40;4.55;;;14.30;87.40;;;;;;4968230;28;20038;-40
2022/05/10 01:22:40;;;;;;;10.25;4.18;;;14.30;87.30;;;;;;4984859;28;20054;-41
2022/05/10 01:25:15;;;;;;;9.02;4.13;;;14.30;88.20;;;;;;4984328;28;20055;-41
2022/05/10 01:28:15;;;;;;;16.13;4.68;;;14.30;88.50;;;;;;4985811;28;20046;-42
2022/05/10 01:30:41;;;;;;;8.77;4.47;;;14.30;89.60;;;;;;4984202;28;20056;-43
2022/05/10 01:33:31;;;;;;;7.20;4.07;;;14.30;87.20;;;;;;4984343;28;20125;-45
2022/05/10 01:36:27;;;;;;;10.25;4.05;;;14.20;88.20;;;;;;4964317;28;20120;-41
2022/05/10 01:39:10;;;;;;;7.68;4.43;;;14.20;90.80;;;;;;4986556;28;20038;-40
2022/05/10 01:41:47;;;;;;;14.70;4.95;;;14.10;88.80;;;;;;4985765;28;20053;-40
2022/05/10 01:44:37;;;;;;;7.45;4.32;;;14.10;89.10;;;;;;4985434;28;20070;-42
2022/05/10 01:47:26;;;;;;;9.80;4.38;;;14.10;90.00;;;;;;4985680;28;20129;-42
2022/05/10 01:49:57;;;;;;;9.75;3.92;;;14.10;88.40;;;;;;4988681;28;20128;-41
2022/05/10 01:52:50;;;;;;;8.65;3.85;;;14.10;89.90;;;;;;4987482;28;20042;-41
2022/05/10 01:55:31;;;;;;;12.32;4.80;;;14.10;90.10;;;;;;4976429;28;20113;-41
2022/05/10 01:58:03;;;;;;;11.23;4.90;;;14.10;90.40;;;;;;4987252;28;20034;-42
2022/05/10 02:00:32;;;;;;;7.43;3.83;;;14.10;90.20;;;;;;4988372;28;20121;-42
2022/05/10 02:03:05;;;;;;;9.15;4.57;;;14.10;89.00;;;;;;4986798;28;20069;-41
2022/05/10 02:05:47;;;;;;;7.30;3.97;;;14.10;90.10;;;;;;4986913;28;20042;-42
2022/05/10 02:08:46;;;;;;;7.60;3.42;;;14.10;90.30;;;;;;4985560;28;20149;-48
2022/05/10 02:11:15;;;;;;;9.48;5.00;;;14.10;90.60;;;;;;4971518;28;20050;-42
2022/05/10 02:13:47;;;;;;;8.68;4.15;;;14.10;89.50;;;;;;4990849;28;20061;-40
2022/05/10 02:16:41;;;;;;;7.95;4.38;;;14.10;90.30;;;;;;4984908;28;20106;-41
2022/05/10 02:19:18;;;;;;;10.65;4.63;;;14.10;90.60;;;;;;4970217;28;20056;-44
2022/05/10 02:21:54;;;;;;;10.23;4.07;;;14.10;90.70;;;;;;4971424;28;20109;-45
2022/05/10 02:24:29;;;;;;;12.40;4.15;;;14.10;90.10;;;;;;4985873;28;20188;-42
2022/05/10 02:27:01;;;;;;;9.40;3.88;;;14.10;90.20;;;;;;4985131;28;20038;-44
2022/05/10 02:29:33;;;;;;;8.77;4.30;;;14.20;89.70;;;;;;4989756;28;20092;-41
2022/05/10 02:34:52;;;;;;;8.68;3.92;;;14.20;89.60;;;;;;4987808;28;20042;-41
2022/05/10 02:37:18;;;;;;;11.15;4.13;;;14.10;89.50;;;;;;4984872;28;20484;-40
2022/05/10 02:39:43;;;;;;;7.97;4.03;;;14.20;89.70;;;;;;4985454;28;20053;-40
2022/05/10 02:42:14;;;;;;;7.18;3.58;;;14.20;89.90;;;;;;4988728;28;20050;-41
2022/05/10 02:44:41;;;;;;;8.73;4.03;;;14.20;90.10;;;;;;4988729;28;20057;-43
2022/05/10 02:47:08;;;;;;;8.75;3.97;;;14.20;90.10;;;;;;4988521;28;20129;-42
2022/05/10 02:49:35;;;;;;;8.63;4.47;;;14.20;89.90;;;;;;4987856;28;20453;-42
2022/05/10 02:52:01;;;;;;;13.30;4.25;;;14.20;90.10;;;;;;4987975;28;20128;-41
2022/05/10 02:54:27;;;;;;;9.65;5.03;;;14.20;90.20;;;;;;4988230;28;20121;-40
2022/05/10 02:56:53;;;;;;;9.52;4.45;;;14.20;90.70;;;;;;4987525;28;20121;-42
2022/05/10 02:59:22;;;;;;;9.35;4.97;;;14.20;90.70;;;;;;4986790;28;20046;-42
2022/05/10 03:02:04;;;;;;;10.90;4.47;;;14.20;90.90;;;;;;4983832;28;20038;-41
2022/05/10 03:04:34;;;;;;;5.90;3.63;;;14.20;91.20;;;;;;4986376;28;20125;-42
2022/05/10 03:07:00;;;;;;;8.23;3.85;;;14.30;90.50;;;;;;4981895;28;20667;-42
2022/05/10 03:09:26;;;;;;;10.60;5.30;;;14.30;90.70;;;;;;4989057;28;20084;-43
2022/05/10 03:11:51;;;;;;;10.45;5.82;;;14.30;91.30;;;;;;4984801;28;20558;-41
2022/05/10 03:14:17;;;;;;;9.52;4.47;;;14.20;91.60;;;;;;4970159;28;20084;-41
2022/05/10 03:16:43;;;;;;;8.38;4.93;;;14.30;92.40;;;;;;4985934;28;20034;-42
2022/05/10 03:19:08;;;;;;;9.88;4.93;;;14.20;92.60;;;;;;4969262;28;20191;-42
2022/05/10 03:21:38;;;;;;;11.80;6.00;;;14.20;92.40;;;;;;4986454;28;20039;-42
2022/05/10 03:24:04;;;;;;;10.45;5.88;;;14.20;92.30;;;;;;4985298;28;20049;-41
2022/05/10 03:26:31;;;;;;;9.32;5.15;;;14.20;91.80;;;;;;4986628;28;20042;-42
2022/05/10 03:28:57;;;;;;;8.73;5.18;;;14.20;91.60;;;;;;4985514;28;20042;-44
2022/05/10 03:31:25;;;;;;;10.60;6.05;;;14.20;91.30;;;;;;4968095;28;20114;-42
2022/05/10 03:36:38;;;;;;;12.43;5.63;;;14.10;91.50;;;;;;4981229;28;20038;-40
2022/05/10 03:39:04;;;;;;;14.52;6.32;;;14.10;91.60;;;;;;4986159;28;20060;-40
2022/05/10 03:41:30;;;;;;;12.13;6.32;;;14.10;91.90;;;;;;4987284;28;20440;-42
2022/05/10 03:43:55;;;;;;;11.50;4.93;;;14.10;92.00;;;;;;4986286;28;20044;-42
2022/05/10 03:46:21;;;;;;;9.90;5.63;;;14.10;92.10;;;;;;4984581;28;20568;-41
2022/05/10 03:48:49;;;;;;;10.02;5.38;;;14.00;92.50;;;;;;4981212;28;20408;-41
2022/05/10 03:51:14;;;;;;;12.05;5.40;;;14.00;92.70;;;;;;4964768;28;20030;-41
2022/05/10 03:53:40;;;;;;;9.77;5.90;;;14.00;93.00;;;;;;4982439;28;20038;-41
2022/05/10 03:56:06;;;;;;;11.48;6.30;;;14.00;93.40;;;;;;4981278;28;20054;-41
2022/05/10 03:58:31;;;;;;;12.80;6.10;;;14.00;93.70;;;;;;4984980;28;20048;-41
2022/05/10 04:00:57;;;;;;;10.15;5.07;;;13.90;93.80;;;;;;4981736;28;20605;-42
2022/05/10 04:03:22;;;;;;;11.57;5.82;;;13.80;94.30;;;;;;4986704;28;20030;-41
2022/05/10 04:05:48;;;;;;;10.68;5.63;;;13.80;94.40;;;;;;4968010;28;20327;-42
2022/05/10 04:08:14;;;;;;;8.35;5.40;;;13.80;94.40;;;;;;4986123;28;20058;-44
2022/05/10 04:10:40;;;;;;;9.65;6.40;;;13.80;94.70;;;;;;4984416;28;20573;-42
2022/05/10 04:13:07;;;;;;;8.60;5.57;;;13.80;94.90;;;;;;4984709;28;20039;-41
2022/05/10 04:15:32;;;;;;;11.80;5.63;;;13.80;94.50;;;;;;4982444;28;20042;-41
2022/05/10 04:17:58;;;;;;;11.57;5.57;;;13.80;94.70;;;;;;4966836;28;20053;-41
2022/05/10 04:20:24;;;;;;;11.63;5.72;;;13.80;94.60;;;;;;4980728;28;20049;-42
2022/05/10 04:22:49;;;;;;;12.18;6.75;;;13.90;94.60;;;;;;4986020;28;20514;-42
2022/05/10 04:25:23;;;;;;;9.38;5.75;;;13.90;94.70;;;;;;4983877;28;20455;-41
2022/05/10 04:27:50;;;;;;;11.25;6.63;;;13.90;94.80;;;;;;4986398;28;20129;-40
2022/05/10 04:30:17;;;;;;;11.38;6.40;;;13.90;94.90;;;;;;4983898;28;20045;-42
2022/05/10 04:32:43;;;;;;;11.13;6.50;;;13.90;94.80;;;;;;4981864;28;20046;-44
2022/05/10 04:35:09;;;;;;;8.68;5.78;;;13.90;95.00;;;;;;4983159;28;20502;-42
2022/05/10 04:37:36;;;;;;;13.30;6.78;;;14.00;94.70;;;;;;4986818;28;20491;-44
2022/05/10 04:42:49;;;;;;;15.18;6.30;;;14.10;94.60;;;;;;4985001;28;20043;-40
2022/05/10 04:45:15;;;;;;;12.23;6.43;;;14.10;94.50;;;;;;4986271;28;20438;-42
2022/05/10 04:47:41;;;;;;;9.50;6.13;;;14.20;94.40;;;;;;4984559;28;20057;-43
2022/05/10 04:50:08;;;;;;;10.07;6.72;;;14.20;94.40;;;;;;4983742;28;20621;-41
2022/05/10 04:52:34;;;;;;;14.43;6.47;;;14.30;94.00;;;;;;4986532;28;20081;-42
2022/05/10 04:55:01;;;;;;;11.27;7.18;;;14.30;94.40;;;;;;4982652;28;20081;-43
2022/05/10 04:57:27;;;;;;;9.00;6.43;;;14.40;94.30;;;;;;4986465;28;20042;-40
2022/05/10 04:59:52;;;;;;;10.05;5.63;;;14.40;94.10;;;;;;4984243;28;20045;-41
2022/05/10 05:02:18;;;;;;;11.07;7.03;;;14.40;93.90;;;;;;4981283;28;20108;-42
2022/05/10 05:04:44;;;;;;;9.48;6.13;;;14.50;93.80;;;;;;4982579;28;20101;-41
2022/05/10 05:07:10;;;;;;;12.10;6.57;;;14.50;93.80;;;;;;4986859;28;20046;-41
2022/05/10 05:09:36;;;;;;;8.32;5.60;;;14.60;93.70;;;;;;4983181;28;20049;-42
2022/05/10 05:12:04;;;;;;;15.10;7.43;;;14.60;93.40;;;;;;4981081;28;20042;-42
2022/05/10 05:14:29;;;;;;;12.75;7.10;;;14.70;93.50;;;;;;4986774;28;20129;-42
2022/05/10 05:16:55;;;;;;;12.55;6.65;;;14.70;93.40;;;;;;4969906;28;20503;-47
2022/05/10 05:19:21;;;;;;;12.93;6.40;;;14.70;93.50;;;;;;4969078;28;20479;-40
2022/05/10 05:21:46;;;;;;;13.13;7.57;;;14.70;93.60;;;;;;4983690;28;20070;-42
2022/05/10 05:24:12;;;;;;;10.50;6.32;;;14.80;93.80;;;;;;4991098;28;20088;-40
2022/05/10 05:26:38;;;;;;;14.23;6.90;;;14.80;94.40;;;;;;4987874;28;20495;-41
2022/05/10 05:29:04;;;;;;;12.68;7.07;;;14.80;93.90;;;;;;4987958;28;20038;-41
2022/05/10 05:31:30;;;;;;;10.40;6.78;;;14.90;94.00;;;;;;4988038;28;20061;-41
2022/05/10 05:33:56;;;;;;;13.82;7.22;;;14.90;94.00;;;;;;4973119;28;20042;-43
2022/05/10 05:36:22;;;;;;;9.15;6.65;;;14.90;93.80;;;;;;4985774;28;20070;-41
2022/05/10 05:38:50;;;;;;;13.15;7.13;;;15.00;93.50;;;;;;4984701;28;20085;-42
2022/05/10 05:41:17;;;;;;;21.98;8.55;;;15.10;93.20;;;;;;4983250;28;20535;-41
2022/05/10 05:43:43;;;;;;;13.60;7.05;;;15.20;93.00;;;;;;4989297;28;20045;-41
2022/05/10 05:46:08;;;;;;;11.20;6.43;;;15.30;92.60;;;;;;4983386;28;20082;-41
2022/05/10 05:48:34;;;;;;;10.07;6.90;;;15.40;91.80;;;;;;4989181;28;20081;-41
2022/05/10 05:51:00;;;;;;;12.93;7.07;;;15.50;91.60;;;;;;4984920;28;20106;-41
2022/05/10 05:53:28;;;;;;;13.07;6.65;;;15.50;91.30;;;;;;4964155;28;20361;-44
2022/05/10 05:56:00;;;;;;;11.80;6.78;;;15.60;90.80;;;;;;4986172;28;20053;-41
2022/05/10 05:58:26;;;;;;;10.43;6.65;;;15.70;90.50;;;;;;4963447;28;20038;-41
2022/05/10 06:00:51;;;;;;;11.27;6.45;;;15.80;90.10;;;;;;4978972;28;20366;-41
2022/05/10 06:03:17;;;;;;;10.65;6.93;;;15.90;89.70;;;;;;4980931;28;20077;-42
2022/05/10 06:05:43;;;;;;;11.18;6.30;;;16.00;88.30;;;;;;4988735;28;20112;-41
2022/05/10 06:08:09;;;;;;;13.45;6.80;;;16.10;87.00;;;;;;4980476;28;20126;-43
2022/05/10 06:10:35;;;;;;;12.60;6.32;;;16.20;86.00;;;;;;4986440;28;20049;-41
2022/05/10 06:13:01;;;;;;;14.55;6.93;;;16.40;83.50;;;;;;4988036;28;21291;-41
2022/05/10 06:15:27;;;;;;;10.25;5.82;;;16.50;82.20;;;;;;4988164;28;20113;-41
2022/05/10 06:17:53;;;;;;;11.77;6.28;;;16.60;81.60;;;;;;4986921;28;21064;-42
2022/05/10 06:20:21;;;;;;;10.80;6.70;;;16.70;80.20;;;;;;4982628;28;20042;-43
2022/05/10 06:22:47;;;;;;;13.65;6.60;;;16.80;79.80;;;;;;4979051;28;20078;-40
2022/05/10 06:25:17;;;;;;;11.35;7.15;;;16.80;78.50;;;;;;4966046;28;20116;-42
2022/05/10 06:27:44;;;;;;;13.27;7.40;;;16.90;78.90;;;;;;4985085;28;20120;-43
2022/05/10 06:30:11;;;;;;;14.90;7.70;;;16.90;79.00;;;;;;4987692;28;20103;-41
2022/05/10 06:32:37;;;;;;;14.18;6.78;;;16.90;79.50;;;;;;4986465;28;20452;-41
2022/05/10 06:35:03;;;;;;;14.15;7.65;;;16.90;79.40;;;;;;4980672;28;20053;-41
2022/05/10 06:40:16;;;;;;;15.05;7.30;;;17.00;77.50;;;;;;4980089;28;20133;-41
2022/05/10 06:42:42;;;;;;;11.48;6.93;;;17.20;77.30;;;;;;4965865;28;20057;-40
2022/05/10 06:45:10;;;;;;;14.45;6.90;;;17.30;76.90;;;;;;4987463;28;20174;-41
2022/05/10 06:47:42;;;;;;;14.15;7.95;;;17.40;76.60;;;;;;4988261;28;20155;-41
2022/05/10 06:50:11;;;;;;;12.57;7.17;;;17.60;75.40;;;;;;4986300;28;20133;-42
2022/05/10 06:52:37;;;;;;;12.38;6.82;;;17.70;74.80;;;;;;4988744;28;20052;-43
2022/05/10 06:55:03;;;;;;;12.15;6.10;;;17.80;74.50;;;;;;4988971;28;20126;-43
2022/05/10 06:57:29;;;;;;;16.02;6.70;;;17.90;74.00;;;;;;4983177;28;20514;-42
2022/05/10 06:59:55;;;;;;;12.32;6.70;;;18.00;72.30;;;;;;4966022;28;20094;-42
2022/05/10 07:02:23;;;;;;;11.82;6.93;;;18.10;72.10;;;;;;4981871;28;20042;-42
2022/05/10 07:04:48;;;;;;;14.35;6.35;;;18.20;70.70;;;;;;4979313;28;20065;-42
2022/05/10 07:07:14;;;;;;;12.35;6.57;;;18.30;70.60;;;;;;4982297;28;20534;-41
2022/05/10 07:09:40;;;;;;;9.48;6.38;;;18.30;70.10;;;;;;4987017;28;20078;-41
2022/05/10 07:12:06;;;;;;;10.57;6.57;;;18.40;69.80;;;;;;4985950;28;20488;-42
2022/05/10 07:14:31;;;;;;;10.75;6.07;;;18.50;70.20;;;;;;4987292;28;20042;-45
2022/05/10 07:16:57;;;;;;;12.52;6.35;;;18.60;69.70;;;;;;4981769;28;20510;-43
2022/05/10 07:19:22;;;;;;;10.57;6.35;;;18.70;68.90;;;;;;4986422;28;20380;-43
2022/05/10 07:21:49;;;;;;;10.38;6.70;;;18.70;68.90;;;;;;4982135;28;20495;-42
2022/05/10 07:24:16;;;;;;;11.55;7.18;;;18.80;68.30;;;;;;4968106;28;20144;-43
2022/05/10 07:26:45;;;;;;;9.82;6.20;;;18.90;68.30;;;;;;4975650;28;20057;-42
2022/05/10 07:29:11;;;;;;;14.23;6.85;;;19.00;68.70;;;;;;4981521;28;20045;-42
2022/05/10 07:31:36;;;;;;;15.50;7.38;;;19.10;68.50;;;;;;4985455;28;20046;-44
2022/05/10 07:34:02;;;;;;;9.32;5.78;;;19.10;68.70;;;;;;4987080;28;20030;-41
2022/05/10 07:36:33;;;;;;;8.90;6.47;;;19.30;67.20;;;;;;4981960;28;20035;-43
2022/05/10 07:39:00;;;;;;;9.07;5.78;;;19.40;67.00;;;;;;4981895;28;20041;-41
2022/05/10 07:41:26;;;;;;;10.73;5.15;;;19.60;66.70;;;;;;4985620;28;20066;-41
2022/05/10 07:43:53;;;;;;;8.15;5.90;;;19.80;63.20;;;;;;4987775;28;20054;-43
2022/05/10 07:46:19;;;;;;;10.35;5.68;;;19.90;62.90;;;;;;4987237;28;20042;-41
2022/05/10 07:48:45;;;;;;;9.35;6.30;;;20.00;62.70;;;;;;4980055;28;21668;-41
2022/05/10 07:51:10;;;;;;;10.43;6.05;;;20.10;62.40;;;;;;4982649;28;20026;-41
2022/05/10 07:53:36;;;;;;;15.98;5.45;;;20.10;61.90;;;;;;4986475;28;20046;-41
2022/05/10 07:56:03;;;;;;;12.80;6.05;;;20.10;61.40;;;;;;4977184;28;20042;-42
2022/05/10 07:58:30;;;;;;;10.00;5.70;;;20.10;61.50;;;;;;4979919;28;20427;-42
2022/05/10 08:00:56;;;;;;;12.73;6.30;;;20.10;61.70;;;;;;4979980;28;20395;-41
2022/05/10 08:03:24;;;;;;;9.75;5.85;;;20.00;62.30;;;;;;4966479;28;20042;-45
2022/05/10 08:05:50;;;;;;;11.38;5.78;;;20.00;61.80;;;;;;4982063;28;20050;-41
2022/05/10 08:08:19;;;;;;;11.38;5.65;;;20.00;63.60;;;;;;4981506;28;20057;-43
2022/05/10 08:10:47;;;;;;;10.60;6.13;;;19.90;64.70;;;;;;4980900;28;20038;-42
2022/05/10 08:13:16;;;;;;;9.90;5.60;;;19.90;65.30;;;;;;4983257;28;20046;-42
2022/05/10 08:15:42;;;;;;;16.55;5.82;;;19.90;65.60;;;;;;4983270;28;20507;-41
2022/05/10 08:18:08;;;;;;;12.93;5.85;;;20.00;65.50;;;;;;4963049;28;20046;-40
2022/05/10 08:20:35;;;;;;;9.18;5.72;;;20.00;65.50;;;;;;4978611;28;20039;-43
2022/05/10 08:23:01;;;;;;;21.73;7.25;;;20.00;65.80;;;;;;4981982;28;20042;-42
2022/05/10 08:25:27;;;;;;;21.13;6.20;;;20.00;66.20;;;;;;4979174;28;20471;-41
2022/05/10 08:27:53;;;;;;;11.75;5.82;;;20.00;65.90;;;;;;4980416;28;20042;-42
2022/05/10 08:30:18;;;;;;;13.38;6.70;;;20.00;65.10;;;;;;4979942;28;20069;-41
2022/05/10 08:32:47;;;;;;;9.10;5.90;;;20.10;65.20;;;;;;4965977;28;20518;-41
2022/05/10 08:35:12;;;;;;;13.00;6.57;;;20.10;65.20;;;;;;4982137;28;20030;-43
2022/05/10 08:37:38;;;;;;;10.20;6.10;;;20.10;64.90;;;;;;4983655;28;20071;-43
2022/05/10 08:40:30;;;;;;;9.60;6.32;;;20.10;64.70;;;;;;4983590;28;20065;-41
2022/05/10 08:43:00;;;;;;;11.80;6.28;;;20.10;65.20;;;;;;4984105;28;20488;-46
2022/05/10 08:45:27;;;;;;;14.35;6.80;;;20.10;64.50;;;;;;4986256;28;20046;-42
2022/05/10 08:47:54;;;;;;;10.88;6.65;;;20.10;65.10;;;;;;4984930;28;20145;-43
2022/05/10 08:50:21;;;;;;;14.15;7.35;;;20.20;65.00;;;;;;4984579;28;20050;-42
2022/05/10 08:52:48;;;;;;;9.63;6.63;;;20.30;64.70;;;;;;4990309;28;20480;-40
2022/05/10 08:55:23;;;;;;;8.55;6.28;;;20.30;64.70;;;;;;4988314;28;20503;-43
2022/05/10 08:57:51;;;;;;;11.15;6.88;;;20.30;64.90;;;;;;4983329;28;20421;-41
2022/05/10 09:00:35;;;;;;;14.18;7.18;;;20.40;65.30;;;;;;4986374;28;20042;-41
2022/05/10 09:03:11;;;;;;;10.32;7.05;;;20.50;64.60;;;;;;4986954;28;20041;-42
2022/05/10 09:05:42;;;;;;;12.32;6.25;;;20.50;64.90;;;;;;4988482;28;20053;-42
2022/05/10 09:08:22;;;;;;;16.75;7.00;;;20.60;64.30;;;;;;4972527;28;20494;-43
2022/05/10 09:11:12;;;;;;;13.50;6.97;;;20.60;64.60;;;;;;4987188;28;20046;-43
2022/05/10 09:13:38;;;;;;;14.05;7.63;;;20.70;65.20;;;;;;4990600;28;20463;-42
2022/05/10 09:16:10;;;;;;;13.48;6.90;;;20.80;64.30;;;;;;4986696;28;20069;-41
2022/05/10 09:18:52;;;;;;;9.83;6.60;;;21.10;64.90;;;;;;4990526;28;20069;-41
2022/05/10 09:21:26;;;;;;;15.17;7.20;;;21.30;64.00;;;;;;4987208;28;20293;-41
2022/05/10 09:24:07;;;;;;;13.80;7.38;;;21.50;62.90;;;;;;4988184;28;20294;-42
2022/05/10 09:26:42;;;;;;;20.27;7.28;;;21.70;62.20;;;;;;4984426;28;20129;-41
2022/05/10 09:29:30;;;;;;;14.25;5.97;;;21.90;59.80;;;;;;4987029;28;20533;-44
2022/05/10 09:34:47;;;;;;;10.45;5.40;;;22.10;56.30;;;;;;4989583;28;20551;-41
2022/05/10 09:37:33;;;;;;;10.95;5.63;;;22.10;55.50;;;;;;4983198;28;20062;-41
2022/05/10 09:40:07;;;;;;;10.57;5.68;;;22.10;55.00;;;;;;4980511;28;20469;-41
2022/05/10 09:42:47;;;;;;;15.15;5.97;;;22.10;55.10;;;;;;4984007;28;20043;-41
2022/05/10 09:45:21;;;;;;;11.63;6.22;;;22.10;55.90;;;;;;4979963;28;20061;-41
2022/05/10 09:48:09;;;;;;;12.25;6.65;;;22.10;56.30;;;;;;4980659;28;20039;-41
2022/05/10 09:50:46;;;;;;;8.43;6.05;;;22.10;56.40;;;;;;4988860;28;20520;-42
2022/05/10 09:53:15;;;;;;;10.18;6.28;;;22.10;56.20;;;;;;4990796;28;20360;-42
2022/05/10 09:56:00;;;;;;;7.63;5.50;;;22.20;56.70;;;;;;4965929;28;20169;-42
2022/05/10 09:58:59;;;;;;;8.98;6.00;;;22.20;56.00;;;;;;4985414;28;20145;-42
2022/05/10 10:01:43;;;;;;;7.07;5.20;;;22.30;55.20;;;;;;4971553;28;20100;-44
2022/05/10 10:04:31;;;;;;;55.20;10.63;;;22.30;55.20;;;;;;4985749;28;20109;-42
2022/05/10 10:07:13;;;;;;;9.88;5.50;;;22.40;54.80;;;;;;4985888;28;20034;-40
2022/05/10 10:09:43;;;;;;;118.18;16.92;;;22.50;54.20;;;;;;4986794;28;20064;-41
2022/05/10 10:12:26;;;;;;;28.85;6.90;;;22.60;54.50;;;;;;4984297;28;20042;-45
2022/05/10 10:14:52;;;;;;;9.95;5.28;;;22.80;53.30;;;;;;4978452;28;20192;-42
2022/05/10 10:17:26;;;;;;;10.05;5.30;;;22.90;53.00;;;;;;4982273;28;20469;-45
2022/05/10 10:20:46;;;;;;;12.80;5.40;;;23.10;52.80;;;;;;4986216;28;20419;-45
2022/05/10 10:23:35;;;;;;;11.60;5.38;;;23.20;51.80;;;;;;4985412;28;20070;-41
2022/05/10 10:26:07;;;;;;;8.32;5.40;;;23.20;52.60;;;;;;4982288;28;20118;-43
2022/05/10 10:28:54;;;;;;;9.10;4.00;;;23.20;53.50;;;;;;4968870;28;20053;-42
2022/05/10 10:31:27;;;;;;;10.45;3.60;;;23.20;48.70;;;;;;4986054;28;20459;-48
2022/05/10 10:34:05;;;;;;;6.80;3.40;;;23.20;49.30;;;;;;4986811;28;20502;-42
2022/05/10 10:36:36;;;;;;;11.38;3.65;;;23.40;47.80;;;;;;4987777;28;20105;-42
2022/05/10 10:39:10;;;;;;;8.75;3.63;;;23.40;48.20;;;;;;4982539;28;20046;-41
2022/05/10 10:41:46;;;;;;;27.50;5.85;;;23.50;48.60;;;;;;4983236;28;20193;-42
2022/05/10 10:44:19;;;;;;;9.05;4.15;;;23.50;48.50;;;;;;4969224;28;20038;-41
2022/05/10 10:46:50;;;;;;;11.57;4.30;;;23.50;48.50;;;;;;4986793;28;20064;-41
2022/05/10 10:49:25;;;;;;;10.32;4.15;;;23.40;48.40;;;;;;4985551;28;20514;-42
2022/05/10 10:51:51;;;;;;;8.70;3.83;;;23.40;48.60;;;;;;4991988;28;20061;-41
2022/05/10 10:54:24;;;;;;;9.00;3.75;;;23.40;48.70;;;;;;4969065;28;20418;-42
2022/05/10 10:57:27;;;;;;;10.07;4.43;;;23.40;49.20;;;;;;4989912;28;20100;-41
2022/05/10 11:00:13;;;;;;;8.57;4.10;;;23.40;50.20;;;;;;4990903;28;20038;-40
2022/05/10 11:02:59;;;;;;;7.78;4.13;;;23.40;49.90;;;;;;4985388;28;20038;-42
2022/05/10 11:05:34;;;;;;;10.90;4.18;;;23.40;49.70;;;;;;4985403;28;20571;-41
2022/05/10 11:08:17;;;;;;;12.85;4.50;;;23.40;48.80;;;;;;4987380;28;20038;-41
2022/05/10 11:10:55;;;;;;;14.07;4.30;;;23.30;48.30;;;;;;4981539;28;20519;-41
2022/05/10 11:13:23;;;;;;;8.45;4.32;;;23.30;48.70;;;;;;4984902;28;20116;-42
2022/05/10 11:16:08;;;;;;;6.78;4.07;;;23.30;48.40;;;;;;4985171;28;20128;-42
2022/05/10 11:18:47;;;;;;;110.93;13.27;;;23.30;48.10;;;;;;4984019;28;20084;-41
2022/05/10 11:21:20;;;;;;;8.93;4.32;;;23.30;48.70;;;;;;4984078;28;20046;-43
2022/05/10 11:23:49;;;;;;;8.57;3.90;;;23.40;49.00;;;;;;4984673;28;20042;-43
2022/05/10 11:26:34;;;;;;;9.20;4.20;;;23.50;48.90;;;;;;4983851;28;20862;-44
2022/05/10 11:29:17;;;;;;;8.48;3.63;;;23.60;48.90;;;;;;4976118;28;20038;-42
2022/05/10 11:31:52;;;;;;;11.20;3.70;;;23.60;49.20;;;;;;4984668;28;20400;-41
2022/05/10 11:34:46;;;;;;;6.88;3.25;;;23.70;49.70;;;;;;4981827;28;20046;-41
2022/05/10 11:37:20;;;;;;;5.72;3.25;;;23.60;48.60;;;;;;4979071;28;20115;-42
2022/05/10 11:40:13;;;;;;;14.27;4.65;;;23.50;47.80;;;;;;4967165;28;20127;-42
2022/05/10 11:43:21;;;;;;;9.80;3.47;;;23.50;47.50;;;;;;4980125;28;20038;-43
2022/05/10 11:46:11;;;;;;;7.30;3.72;;;23.70;47.40;;;;;;4967941;28;20153;-42
2022/05/10 11:48:57;;;;;;;15.13;3.75;;;23.70;47.00;;;;;;4983590;28;20558;-41
2022/05/10 11:51:53;;;;;;;13.65;4.05;;;23.90;46.70;;;;;;4983924;28;20046;-41
2022/05/10 11:54:18;;;;;;;11.18;3.30;;;23.90;45.80;;;;;;4981743;28;20054;-41
2022/05/10 11:56:46;;;;;;;27.58;6.03;;;24.00;46.90;;;;;;4985296;28;20153;-40
2022/05/10 11:59:20;;;;;;;27.45;5.07;;;24.00;46.50;;;;;;4968064;28;20042;-41
2022/05/10 12:01:48;;;;;;;5.93;3.08;;;24.00;47.10;;;;;;4982145;28;20128;-43
2022/05/10 12:04:38;;;;;;;8.88;3.45;;;24.00;46.30;;;;;;4988390;28;20113;-41
2022/05/10 12:07:19;;;;;;;10.27;3.45;;;23.80;46.50;;;;;;4979548;28;20094;-42
2022/05/10 12:10:03;;;;;;;10.63;3.33;;;23.70;47.00;;;;;;4981294;28;20421;-42
2022/05/10 12:12:31;;;;;;;8.73;2.58;;;23.60;47.20;;;;;;4984614;28;20065;-44
2022/05/10 12:21:20;;;;;;;5.38;2.58;;;23.70;47.50;;;;;;4983085;28;20038;-42
2022/05/10 12:24:00;;;;;;;4.53;2.20;;;23.70;48.00;;;;;;4980459;28;20418;-43
2022/05/10 12:26:52;;;;;;;9.50;2.97;;;23.70;47.80;;;;;;4985701;28;20041;-44
2022/05/10 12:29:41;;;;;;;13.13;2.50;;;23.60;47.50;;;;;;4978529;28;20703;-45
2022/05/10 12:32:39;;;;;;;23.42;3.40;;;23.70;48.00;;;;;;4952652;28;20093;-44
2022/05/10 12:35:30;;;;;;;10.85;3.20;;;23.80;47.60;;;;;;4982598;28;20042;-42
2022/05/10 12:37:59;;;;;;;8.93;2.72;;;23.80;47.50;;;;;;4985417;28;20042;-42
2022/05/10 12:40:34;;;;;;;15.20;3.28;;;23.80;47.80;;;;;;4985401;28;20128;-42
2022/05/10 12:43:23;;;;;;;14.27;2.83;;;23.70;47.20;;;;;;4981286;28;20042;-43
2022/05/10 12:45:55;;;;;;;8.57;2.88;;;23.80;46.70;;;;;;4980759;28;20045;-41
2022/05/10 12:49:03;;;;;;;10.18;2.95;;;23.70;47.10;;;;;;4982519;28;20082;-43
2022/05/10 12:51:46;;;;;;;21.55;3.03;;;23.60;47.00;;;;;;4977824;28;20058;-43
2022/05/10 12:54:54;;;;;;;5.53;2.85;;;23.40;47.20;;;;;;4969719;28;20391;-41
2022/05/10 12:57:40;;;;;;;6.05;2.40;;;23.30;47.90;;;;;;4971374;28;20152;-43
2022/05/10 13:00:12;;;;;;;10.63;2.72;;;23.20;47.90;;;;;;4985247;28;20621;-41
2022/05/10 13:02:42;;;;;;;7.75;2.65;;;23.00;47.70;;;;;;4980823;28;20134;-42
2022/05/10 13:05:19;;;;;;;5.45;2.80;;;22.90;48.70;;;;;;4981120;28;20062;-43
2022/05/10 13:07:55;;;;;;;10.38;2.67;;;22.80;49.40;;;;;;4980465;28;20046;-44
2022/05/10 13:10:23;;;;;;;10.07;3.58;;;22.80;49.40;;;;;;4980329;28;20049;-42
2022/05/10 13:12:54;;;;;;;6.15;2.85;;;22.60;49.40;;;;;;4955612;28;20093;-46
2022/05/10 13:15:23;;;;;;;9.77;3.00;;;22.60;49.90;;;;;;4974490;28;20061;-43
2022/05/10 13:17:52;;;;;;;7.93;2.55;;;22.50;50.00;;;;;;4966128;28;20038;-43
2022/05/10 13:20:26;;;;;;;12.15;2.55;;;22.50;49.90;;;;;;4982894;28;20043;-42
2022/05/10 13:22:58;;;;;;;7.95;2.05;;;22.50;50.00;;;;;;4984237;28;20110;-45
2022/05/10 13:25:26;;;;;;;18.13;2.35;;;22.60;49.60;;;;;;4963146;28;20137;-42
2022/05/10 13:27:52;;;;;;;9.48;2.30;;;22.60;48.40;;;;;;4981515;28;20174;-42